createdAt,value
2017-05-12T00:01:25.822Z,94010.98
2017-05-12T00:03:52.742Z,94010.59
2017-05-12T00:06:19.632Z,94011.05
2017-05-12T00:08:45.782Z,94012.42
2017-05-12T00:11:11.941Z,94006.38
2017-05-12T00:13:38.909Z,94011.41
2017-05-12T00:16:05.150Z,94004.81
2017-05-12T00:18:31.285Z,94005.80
2017-05-12T00:20:57.474Z,94010.26
2017-05-12T00:23:23.618Z,94010.34
2017-05-12T00:25:50.507Z,94008.77
2017-05-12T00:28:17.385Z,94004.66
2017-05-12T00:30:43.518Z,94009.79
2017-05-12T00:33:09.671Z,94001.25
2017-05-12T00:35:35.928Z,94002.87
2017-05-12T00:38:02.127Z,94000.89
2017-05-12T00:40:33.123Z,94004.97
2017-05-12T00:42:59.276Z,93998.14
2017-05-12T00:45:25.418Z,94003.21
2017-05-12T00:47:51.574Z,94003.42
2017-05-12T00:50:17.713Z,94007.97
2017-05-12T00:52:44.609Z,94012.63
2017-05-12T00:55:10.748Z,94014.39
2017-05-12T00:57:36.928Z,94016.23
2017-05-12T01:00:03.910Z,94016.96
2017-05-12T01:02:30.070Z,94030.36
2017-05-12T01:04:56.258Z,94020.98
2017-05-12T01:07:23.188Z,94030.78
2017-05-12T01:09:50.170Z,94027.08
2017-05-12T01:12:16.377Z,94023.56
2017-05-12T01:14:43.286Z,94030.53
2017-05-12T01:17:09.430Z,94031.30
2017-05-12T01:19:35.565Z,94032.30
2017-05-12T01:22:07.112Z,94027.30
2017-05-12T01:24:33.373Z,94034.47
2017-05-12T01:26:59.532Z,94040.95
2017-05-12T01:29:26.821Z,94042.58
2017-05-12T01:31:53.746Z,94047.39
2017-05-12T01:34:19.979Z,94045.91
2017-05-12T01:36:46.143Z,94048.73
2017-05-12T01:39:12.315Z,94051.77
2017-05-12T01:41:38.453Z,94049.42
2017-05-12T01:44:04.655Z,94051.72
2017-05-12T01:46:30.899Z,94058.42
2017-05-12T01:48:57.828Z,94055.97
2017-05-12T01:51:23.976Z,94061.98
2017-05-12T01:53:50.976Z,94059.73
2017-05-12T01:56:17.938Z,94058.22
2017-05-12T01:58:44.139Z,94057.64
2017-05-12T02:01:10.308Z,94068.47
2017-05-12T02:03:37.577Z,94073.30
2017-05-12T02:06:03.811Z,94088.75
2017-05-12T02:08:30.048Z,94090.52
2017-05-12T02:10:56.266Z,94098.00
2017-05-12T02:13:22.722Z,94096.80
2017-05-12T02:15:48.981Z,94100.77
2017-05-12T02:18:15.394Z,94104.81
2017-05-12T02:20:41.659Z,94100.31
2017-05-12T02:23:08.620Z,94111.50
2017-05-12T02:25:34.941Z,94105.44
2017-05-12T02:28:01.166Z,94117.37
2017-05-12T02:30:28.297Z,94116.95
2017-05-12T02:32:54.662Z,94123.25
2017-05-12T02:35:21.017Z,94124.06
2017-05-12T02:37:47.258Z,94123.58
2017-05-12T02:40:14.482Z,94134.43
2017-05-12T02:42:40.659Z,94140.50
2017-05-12T02:45:10.996Z,94141.92
2017-05-12T02:47:37.934Z,94133.53
2017-05-12T02:50:04.841Z,94145.53
2017-05-12T02:52:31.274Z,94150.41
2017-05-12T02:54:57.925Z,94152.03
2017-05-12T02:57:24.292Z,94162.41
2017-05-12T02:59:50.782Z,94163.19
2017-05-12T03:02:16.969Z,94164.86
2017-05-12T03:04:43.270Z,94172.83
2017-05-12T03:07:09.457Z,94178.22
2017-05-12T03:09:36.352Z,94180.89
2017-05-12T03:12:02.795Z,94182.52
2017-05-12T03:14:29.681Z,94179.28
2017-05-12T03:16:57.330Z,94184.52
2017-05-12T03:19:23.585Z,94186.02
2017-05-12T03:21:49.735Z,94190.12
2017-05-12T03:24:16.630Z,94194.68
2017-05-12T03:26:42.837Z,94197.30
2017-05-12T03:29:10.841Z,94201.69
2017-05-12T03:31:36.979Z,94201.53
2017-05-12T03:34:03.975Z,94205.52
2017-05-12T03:36:30.886Z,94210.47
2017-05-12T03:38:58.050Z,94218.14
2017-05-12T03:41:24.201Z,94215.36
2017-05-12T03:43:50.345Z,94216.63
2017-05-12T03:46:17.234Z,94219.86
2017-05-12T03:48:44.161Z,94229.86
2017-05-12T03:51:11.046Z,94228.34
2017-05-12T03:53:37.217Z,94235.84
2017-05-12T03:56:04.930Z,94240.23
2017-05-12T03:58:31.087Z,94253.14
2017-05-12T04:00:57.370Z,94256.28
2017-05-12T04:03:24.266Z,94258.82
2017-05-12T04:05:50.410Z,94270.13
2017-05-12T04:08:17.426Z,94279.96
2017-05-12T04:10:43.576Z,94285.91
2017-05-12T04:13:10.513Z,94286.99
2017-05-12T04:15:36.705Z,94293.98
2017-05-12T04:18:03.016Z,94291.95
2017-05-12T04:20:29.234Z,94304.27
2017-05-12T04:22:55.421Z,94302.32
2017-05-12T04:25:21.856Z,94306.09
2017-05-12T04:27:48.877Z,94314.27
2017-05-12T04:30:15.034Z,94314.23
2017-05-12T04:32:41.176Z,94313.91
2017-05-12T04:35:08.181Z,94318.36
2017-05-12T04:37:34.364Z,94318.52
2017-05-12T04:40:01.333Z,94322.53
2017-05-12T04:42:27.537Z,94326.70
2017-05-12T04:44:53.745Z,94328.48
2017-05-12T04:47:19.937Z,94331.72
2017-05-12T04:49:51.160Z,94335.95
2017-05-12T04:52:18.101Z,94332.92
2017-05-12T04:54:44.292Z,94336.14
2017-05-12T04:57:11.860Z,94346.37
2017-05-12T04:59:38.508Z,94348.03
2017-05-12T05:02:04.843Z,94350.30
2017-05-12T05:04:31.871Z,94351.37
2017-05-12T05:06:58.071Z,94362.23
2017-05-12T05:09:24.238Z,94351.72
2017-05-12T05:11:50.678Z,94358.42
2017-05-12T05:14:17.801Z,94357.28
2017-05-12T05:16:44.937Z,94361.06
2017-05-12T05:19:12.164Z,94368.50
2017-05-12T05:21:38.785Z,94364.14
2017-05-12T05:24:05.175Z,94370.94
2017-05-12T05:26:32.113Z,94381.52
2017-05-12T05:28:58.418Z,94381.19
2017-05-12T05:31:29.413Z,94385.45
2017-05-12T05:33:55.700Z,94386.24
2017-05-12T05:36:21.933Z,94386.57
2017-05-12T05:38:48.094Z,94383.82
2017-05-12T05:41:14.306Z,94388.67
2017-05-12T05:43:40.802Z,94386.49
2017-05-12T05:46:07.178Z,94388.98
2017-05-12T05:48:33.485Z,94401.23
2017-05-12T05:51:02.038Z,94403.23
2017-05-12T05:53:28.221Z,94405.58
2017-05-12T05:55:54.502Z,94408.49
2017-05-12T05:58:20.860Z,94409.59
2017-05-12T06:00:47.144Z,94405.82
2017-05-12T06:03:13.969Z,94414.76
2017-05-12T06:05:41.968Z,94412.66
2017-05-12T06:08:08.573Z,94420.80
2017-05-12T06:10:37.806Z,94413.27
2017-05-12T06:13:06.756Z,94414.31
2017-05-12T06:15:35.591Z,94414.12
2017-05-12T06:18:01.963Z,94412.00
2017-05-12T06:20:28.224Z,94409.83
2017-05-12T06:22:55.553Z,94412.97
2017-05-12T06:25:21.734Z,94411.80
2017-05-12T06:27:48.794Z,94415.66
2017-05-12T06:30:17.099Z,94418.22
2017-05-12T06:32:43.586Z,94422.45
2017-05-12T06:35:10.030Z,94418.30
2017-05-12T06:37:36.228Z,94425.36
2017-05-12T06:40:02.586Z,94423.36
2017-05-12T06:42:29.575Z,94424.74
2017-05-12T06:44:56.498Z,94428.13
2017-05-12T06:47:22.748Z,94431.25
2017-05-12T06:49:48.914Z,94430.37
2017-05-12T06:52:15.271Z,94432.92
2017-05-12T06:54:42.651Z,94434.28
2017-05-12T06:57:08.832Z,94435.82
2017-05-12T06:59:35.816Z,94438.38
2017-05-12T07:02:01.971Z,94446.11
2017-05-12T07:04:28.128Z,94443.16
2017-05-12T07:06:55.202Z,94443.45
2017-05-12T07:09:22.218Z,94444.09
2017-05-12T07:11:49.933Z,94447.01
2017-05-12T07:14:16.251Z,94445.67
2017-05-12T07:16:43.173Z,94438.30
2017-05-12T07:19:10.111Z,94438.75
2017-05-12T07:21:36.291Z,94443.00
2017-05-12T07:24:03.185Z,94434.12
2017-05-12T07:26:29.397Z,94432.61
2017-05-12T07:28:55.726Z,94438.34
2017-05-12T07:31:21.977Z,94439.09
2017-05-12T07:33:48.194Z,94441.08
2017-05-12T07:36:14.377Z,94429.52
2017-05-12T07:38:40.532Z,94438.59
2017-05-12T07:41:07.490Z,94433.73
2017-05-12T07:43:34.429Z,94441.12
2017-05-12T07:46:00.635Z,94438.80
2017-05-12T07:48:26.830Z,94439.97
2017-05-12T07:50:53.005Z,94440.81
2017-05-12T07:53:19.166Z,94441.05
2017-05-12T07:55:46.255Z,94443.09
2017-05-12T07:58:15.765Z,94439.56
2017-05-12T08:00:42.315Z,94444.59
2017-05-12T08:03:08.651Z,94442.77
2017-05-12T08:05:34.846Z,94435.20
2017-05-12T08:08:01.831Z,94440.91
2017-05-12T08:10:28.169Z,94437.00
2017-05-12T08:12:54.358Z,94437.63
2017-05-12T08:15:20.635Z,94439.83
2017-05-12T08:17:46.864Z,94443.64
2017-05-12T08:20:13.806Z,94440.11
2017-05-12T08:22:40.049Z,94438.41
2017-05-12T08:25:06.201Z,94434.08
2017-05-12T08:27:32.496Z,94441.36
2017-05-12T08:29:59.435Z,94440.73
2017-05-12T08:32:25.681Z,94440.94
2017-05-12T08:34:52.615Z,94437.98
2017-05-12T08:37:18.970Z,94444.69
2017-05-12T08:39:48.770Z,94441.14
2017-05-12T08:42:14.939Z,94449.69
2017-05-12T08:44:41.210Z,94445.41
2017-05-12T08:47:07.371Z,94447.81
2017-05-12T08:49:33.650Z,94444.37
2017-05-12T08:51:59.859Z,94443.00
2017-05-12T08:54:26.760Z,94444.20
2017-05-12T08:56:53.148Z,94435.68
2017-05-12T08:59:20.018Z,94439.43
2017-05-12T09:01:46.313Z,94439.20
2017-05-12T09:04:12.495Z,94445.13
2017-05-12T09:06:39.414Z,94439.81
2017-05-12T09:09:06.369Z,94441.70
2017-05-12T09:11:33.278Z,94436.84
2017-05-12T09:13:59.450Z,94430.80
2017-05-12T09:16:26.338Z,94433.95
2017-05-12T09:18:52.701Z,94434.15
2017-05-12T09:21:19.375Z,94435.40
2017-05-12T09:23:45.918Z,94436.28
2017-05-12T09:26:12.870Z,94426.80
2017-05-12T09:28:40.794Z,94424.84
2017-05-12T09:31:06.979Z,94424.92
2017-05-12T09:33:33.929Z,94428.05
2017-05-12T09:36:00.863Z,94425.94
2017-05-12T09:38:27.105Z,94435.70
2017-05-12T09:40:54.017Z,94426.99
2017-05-12T09:43:20.313Z,94433.94
2017-05-12T09:45:46.517Z,94438.88
2017-05-12T09:48:13.496Z,94439.34
2017-05-12T09:50:39.731Z,94437.89
2017-05-12T09:53:05.950Z,94427.44
2017-05-12T09:55:32.881Z,94427.05
2017-05-12T09:57:59.155Z,94431.91
2017-05-12T10:00:25.346Z,94446.00
2017-05-12T10:02:51.602Z,94438.67
2017-05-12T10:05:18.515Z,94438.42
2017-05-12T10:07:46.166Z,94438.30
2017-05-12T10:10:12.404Z,94440.07
2017-05-12T10:12:39.885Z,94435.02
2017-05-12T10:15:06.153Z,94431.72
2017-05-12T10:17:34.434Z,94425.18
2017-05-12T10:20:01.466Z,94436.06
2017-05-12T10:22:27.711Z,94434.23
2017-05-12T10:24:54.615Z,94428.59
2017-05-12T10:27:20.802Z,94428.70
2017-05-12T10:29:47.762Z,94431.38
2017-05-12T10:32:13.998Z,94426.02
2017-05-12T10:34:40.207Z,94410.27
2017-05-12T10:37:06.438Z,94417.31
2017-05-12T10:39:33.404Z,94404.98
2017-05-12T10:42:00.347Z,94411.16
2017-05-12T10:44:27.380Z,94413.95
2017-05-12T10:46:53.629Z,94419.27
2017-05-12T10:49:20.606Z,94415.92
2017-05-12T10:51:47.530Z,94420.39
2017-05-12T10:54:13.793Z,94419.19
2017-05-12T10:56:40.750Z,94427.59
2017-05-12T10:59:06.957Z,94427.29
2017-05-12T11:01:33.197Z,94425.55
2017-05-12T11:04:00.186Z,94424.48
2017-05-12T11:06:26.374Z,94419.59
2017-05-12T11:08:53.318Z,94420.23
2017-05-12T11:11:19.563Z,94418.22
2017-05-12T11:13:46.542Z,94424.92
2017-05-12T11:16:12.757Z,94418.19
2017-05-12T11:18:39.730Z,94415.93
2017-05-12T11:21:05.930Z,94422.03
2017-05-12T11:23:32.889Z,94418.38
2017-05-12T11:25:59.834Z,94409.05
2017-05-12T11:28:26.814Z,94415.09
2017-05-12T11:30:53.034Z,94412.73
2017-05-12T11:33:19.991Z,94414.94
2017-05-12T11:35:46.245Z,94415.28
2017-05-12T11:38:12.457Z,94417.44
2017-05-12T11:40:38.798Z,94414.95
2017-05-12T11:43:05.003Z,94412.14
2017-05-12T11:45:31.905Z,94412.44
2017-05-12T11:47:58.139Z,94411.41
2017-05-12T11:50:24.339Z,94411.28
2017-05-12T11:52:51.241Z,94404.19
2017-05-12T11:55:18.282Z,94399.80
2017-05-12T11:57:44.452Z,94402.29
2017-05-12T12:00:11.444Z,94391.96
2017-05-12T12:02:37.656Z,94393.61
2017-05-12T12:05:05.726Z,94387.11
2017-05-12T12:07:32.626Z,94386.34
2017-05-12T12:09:58.786Z,94382.98
2017-05-12T12:12:25.050Z,94390.52
2017-05-12T12:14:51.941Z,94386.94
2017-05-12T12:17:18.841Z,94395.80
2017-05-12T12:19:45.806Z,94383.50
2017-05-12T12:22:12.714Z,94393.88
2017-05-12T12:24:40.332Z,94391.75
2017-05-12T12:27:06.554Z,94390.11
2017-05-12T12:29:33.487Z,94384.11
2017-05-12T12:32:00.454Z,94388.83
2017-05-12T12:34:27.405Z,94378.64
2017-05-12T12:36:54.479Z,94381.24
2017-05-12T12:39:20.710Z,94381.30
2017-05-12T12:41:46.922Z,94376.02
2017-05-12T12:44:13.880Z,94371.09
2017-05-12T12:46:40.762Z,94379.07
2017-05-12T12:49:06.940Z,94371.95
2017-05-12T12:51:33.181Z,94382.45
2017-05-12T12:54:00.129Z,94378.83
2017-05-12T12:56:26.374Z,94384.02
2017-05-12T12:58:53.302Z,94370.42
2017-05-12T13:01:20.343Z,94369.86
2017-05-12T13:03:46.592Z,94363.27
2017-05-12T13:06:12.898Z,94364.11
2017-05-12T13:08:39.085Z,94358.16
2017-05-12T13:11:05.965Z,94353.22
2017-05-12T13:13:32.163Z,94348.89
2017-05-12T13:15:59.318Z,94348.05
2017-05-12T13:18:26.270Z,94345.58
2017-05-12T13:20:53.214Z,94349.98
2017-05-12T13:23:20.261Z,94349.72
2017-05-12T13:25:47.213Z,94345.59
2017-05-12T13:28:13.442Z,94345.41
2017-05-12T13:30:39.743Z,94341.70
2017-05-12T13:33:05.927Z,94336.58
2017-05-12T13:35:32.869Z,94339.00
2017-05-12T13:37:59.813Z,94338.10
2017-05-12T13:40:26.794Z,94339.54
2017-05-12T13:42:52.933Z,94334.27
2017-05-12T13:45:19.882Z,94331.80
2017-05-12T13:47:46.137Z,94329.55
2017-05-12T13:50:12.322Z,94335.25
2017-05-12T13:52:39.263Z,94336.43
2017-05-12T13:55:05.514Z,94331.67
2017-05-12T13:57:32.597Z,94333.10
2017-05-12T13:59:58.808Z,94318.28
2017-05-12T14:02:25.749Z,94308.76
2017-05-12T14:04:52.641Z,94311.38
2017-05-12T14:07:19.536Z,94309.28
2017-05-12T14:09:45.779Z,94305.36
2017-05-12T14:12:12.737Z,94299.11
2017-05-12T14:14:40.798Z,94296.81
2017-05-12T14:17:06.953Z,94311.38
2017-05-12T14:19:33.835Z,94303.55
2017-05-12T14:22:00.011Z,94299.95
2017-05-12T14:24:26.161Z,94308.45
2017-05-12T14:26:52.389Z,94311.34
2017-05-12T14:29:19.341Z,94304.69
2017-05-12T14:31:46.257Z,94303.17
2017-05-12T14:34:12.521Z,94299.98
2017-05-12T14:36:38.681Z,94299.44
2017-05-12T14:39:04.898Z,94290.70
2017-05-12T14:41:31.138Z,94284.30
2017-05-12T14:43:58.093Z,94289.46
2017-05-12T14:46:24.990Z,94288.30
2017-05-12T14:48:51.149Z,94285.91
2017-05-12T14:51:18.117Z,94284.66
2017-05-12T14:53:45.062Z,94282.64
2017-05-12T14:56:18.458Z,94285.38
2017-05-12T14:58:45.397Z,94283.48
2017-05-12T15:01:11.569Z,94289.48
2017-05-12T15:03:38.514Z,94283.64
2017-05-12T15:06:04.745Z,94287.60
2017-05-12T15:08:30.986Z,94286.14
2017-05-12T15:10:57.181Z,94287.69
2017-05-12T15:13:23.424Z,94293.53
2017-05-12T15:15:49.674Z,94288.72
2017-05-12T15:18:16.633Z,94293.41
2017-05-12T15:20:42.854Z,94295.21
2017-05-12T15:23:09.751Z,94294.70
2017-05-12T15:25:36.782Z,94295.17
2017-05-12T15:28:03.178Z,94298.09
2017-05-12T15:30:29.417Z,94302.59
2017-05-12T15:32:56.398Z,94307.64
2017-05-12T15:35:22.621Z,94304.17
2017-05-12T15:37:48.785Z,94310.06
2017-05-12T15:40:15.730Z,94317.64
2017-05-12T15:42:41.933Z,94324.34
2017-05-12T15:45:08.889Z,94325.30
2017-05-12T15:47:35.919Z,94322.05
2017-05-12T15:50:07.214Z,94322.14
2017-05-12T15:52:33.797Z,94322.81
2017-05-12T15:55:00.119Z,94326.21
2017-05-12T15:57:26.298Z,94324.80
2017-05-12T15:59:53.247Z,94326.73
2017-05-12T16:02:20.201Z,94326.80
2017-05-12T16:04:47.153Z,94326.36
2017-05-12T16:07:14.113Z,94330.27
2017-05-12T16:09:40.349Z,94331.33
2017-05-12T16:12:06.569Z,94325.64
2017-05-12T16:14:33.529Z,94322.83
2017-05-12T16:17:00.477Z,94318.17
2017-05-12T16:19:27.368Z,94314.37
2017-05-12T16:21:53.530Z,94308.39
2017-05-12T16:24:20.509Z,94313.30
2017-05-12T16:26:47.465Z,94310.70
2017-05-12T16:29:13.689Z,94313.65
2017-05-12T16:31:40.662Z,94318.02
2017-05-12T16:34:06.881Z,94325.93
2017-05-12T16:36:33.826Z,94327.34
2017-05-12T16:39:00.792Z,94318.94
2017-05-12T16:41:26.974Z,94316.48
2017-05-12T16:43:53.258Z,94318.31
2017-05-12T16:46:19.453Z,94317.48
2017-05-12T16:48:45.713Z,94316.46
2017-05-12T16:51:12.654Z,94323.37
2017-05-12T16:53:39.634Z,94324.63
2017-05-12T16:56:05.858Z,94334.39
2017-05-12T16:58:32.101Z,94331.36
2017-05-12T17:00:58.353Z,94332.91
2017-05-12T17:03:24.543Z,94331.48
2017-05-12T17:05:51.475Z,94335.09
2017-05-12T17:08:17.721Z,94340.09
2017-05-12T17:10:43.954Z,94345.66
2017-05-12T17:13:10.193Z,94337.93
2017-05-12T17:15:36.497Z,94334.28
2017-05-12T17:18:03.557Z,94334.97
2017-05-12T17:20:30.468Z,94337.30
2017-05-12T17:22:57.502Z,94339.83
2017-05-12T17:25:24.478Z,94340.20
2017-05-12T17:27:50.681Z,94347.94
2017-05-12T17:30:17.618Z,94350.12
2017-05-12T17:32:44.590Z,94344.72
2017-05-12T17:35:11.556Z,94354.41
2017-05-12T17:37:37.789Z,94361.36
2017-05-12T17:40:04.706Z,94366.28
2017-05-12T17:42:30.953Z,94373.69
2017-05-12T17:44:57.917Z,94373.61
2017-05-12T17:47:24.131Z,94377.71
2017-05-12T17:49:51.483Z,94390.64
2017-05-12T17:52:17.717Z,94395.47
2017-05-12T17:54:43.877Z,94392.18
2017-05-12T17:57:10.892Z,94397.88
2017-05-12T17:59:37.158Z,94399.44
2017-05-12T18:02:03.445Z,94405.26
2017-05-12T18:04:29.625Z,94406.08
2017-05-12T18:06:56.579Z,94408.71
2017-05-12T18:09:23.521Z,94418.34
2017-05-12T18:11:50.500Z,94430.86
2017-05-12T18:14:16.841Z,94437.80
2017-05-12T18:16:43.035Z,94456.45
2017-05-12T18:19:10.014Z,94478.30
2017-05-12T18:21:36.360Z,94507.67
2017-05-12T18:24:02.551Z,94522.55
2017-05-12T18:26:28.813Z,94533.80
2017-05-12T18:28:55.262Z,94562.69
2017-05-12T18:31:21.853Z,94573.23
2017-05-12T18:33:48.132Z,94583.44
2017-05-12T18:36:20.296Z,94594.47
2017-05-12T18:38:47.252Z,94610.91
2017-05-12T18:41:13.457Z,94604.03
2017-05-12T18:43:39.633Z,94585.48
2017-05-12T18:46:05.858Z,94591.16
2017-05-12T18:48:32.113Z,94598.15
2017-05-12T18:50:58.345Z,94602.64
2017-05-12T18:53:24.608Z,94600.03
2017-05-12T18:55:50.880Z,94605.44
2017-05-12T18:58:17.868Z,94600.34
2017-05-12T19:00:44.141Z,94614.06
2017-05-12T19:03:10.364Z,94637.75
2017-05-12T19:05:37.259Z,94626.95
2017-05-12T19:08:03.429Z,94634.84
2017-05-12T19:10:29.646Z,94636.17
2017-05-12T19:12:56.188Z,94640.66
2017-05-12T19:15:22.423Z,94648.31
2017-05-12T19:17:48.653Z,94647.42
2017-05-12T19:20:14.937Z,94654.19
2017-05-12T19:22:41.494Z,94659.31
2017-05-12T19:25:08.514Z,94658.58
2017-05-12T19:27:34.851Z,94662.81
2017-05-12T19:30:01.174Z,94670.88
2017-05-12T19:32:27.542Z,94666.13
2017-05-12T19:34:53.698Z,94672.44
2017-05-12T19:37:20.774Z,94670.28
2017-05-12T19:39:46.973Z,94677.73
2017-05-12T19:42:13.157Z,94676.97
2017-05-12T19:44:39.313Z,94678.75
2017-05-12T19:47:07.262Z,94681.74
2017-05-12T19:49:33.577Z,94688.16
2017-05-12T19:51:59.752Z,94675.83
2017-05-12T19:54:26.918Z,94677.88
2017-05-12T19:56:53.090Z,94679.33
2017-05-12T19:59:19.325Z,94669.69
2017-05-12T20:01:46.323Z,94658.50
2017-05-12T20:04:12.485Z,94654.62
2017-05-12T20:06:38.838Z,94654.95
2017-05-12T20:09:06.136Z,94644.30
2017-05-12T20:11:32.322Z,94653.73
2017-05-12T20:13:59.335Z,94644.38
2017-05-12T20:16:25.558Z,94645.34
2017-05-12T20:18:51.724Z,94651.10
2017-05-12T20:21:27.659Z,94653.41
2017-05-12T20:23:54.573Z,94650.41
2017-05-12T20:26:20.752Z,94658.05
2017-05-12T20:28:47.674Z,94644.59
2017-05-12T20:31:13.813Z,94648.70
2017-05-12T20:33:39.991Z,94655.91
2017-05-12T20:36:06.943Z,94649.77
2017-05-12T20:38:33.951Z,94650.45
2017-05-12T20:41:00.856Z,94649.65
2017-05-12T20:43:27.833Z,94652.43
2017-05-12T20:45:54.038Z,94650.91
2017-05-12T20:48:20.956Z,94658.79
2017-05-12T20:50:47.130Z,94662.81
2017-05-12T20:53:14.056Z,94659.50
2017-05-12T20:55:40.300Z,94664.70
2017-05-12T20:58:07.445Z,94661.28
2017-05-12T21:00:33.730Z,94664.31
2017-05-12T21:02:59.898Z,94672.08
2017-05-12T21:05:26.067Z,94685.66
2017-05-12T21:07:53.019Z,94694.96
2017-05-12T21:10:22.674Z,94684.16
2017-05-12T21:12:49.984Z,94699.56
2017-05-12T21:15:17.110Z,94694.66
2017-05-12T21:17:43.292Z,94705.50
2017-05-12T21:20:10.589Z,94704.48
2017-05-12T21:22:36.773Z,94705.98
2017-05-12T21:25:03.331Z,94701.88
2017-05-12T21:27:29.540Z,94702.94
2017-05-12T21:29:56.437Z,94704.09
2017-05-12T21:32:22.662Z,94703.89
2017-05-12T21:34:48.866Z,94710.41
2017-05-12T21:37:15.786Z,94708.36
2017-05-12T21:39:41.945Z,94704.24
2017-05-12T21:42:08.879Z,94710.33
2017-05-12T21:44:35.069Z,94717.75
2017-05-12T21:47:01.301Z,94721.77
2017-05-12T21:49:28.330Z,94721.27
2017-05-12T21:51:54.495Z,94719.22
2017-05-12T21:54:20.706Z,94722.38
2017-05-12T21:56:46.863Z,94718.61
2017-05-12T21:59:13.015Z,94726.42
2017-05-12T22:01:39.310Z,94727.03
2017-05-12T22:04:05.461Z,94726.34
2017-05-12T22:06:35.037Z,94733.30
2017-05-12T22:09:01.966Z,94729.25
2017-05-12T22:11:28.857Z,94732.26
2017-05-12T22:13:55.089Z,94742.03
2017-05-12T22:16:21.263Z,94743.72
2017-05-12T22:18:48.954Z,94743.97
2017-05-12T22:21:15.834Z,94749.47
2017-05-12T22:23:42.055Z,94754.91
2017-05-12T22:26:08.331Z,94751.81
2017-05-12T22:28:34.673Z,94752.00
2017-05-12T22:31:01.612Z,94753.48
2017-05-12T22:33:27.809Z,94757.93
2017-05-12T22:35:53.956Z,94755.45
2017-05-12T22:38:20.117Z,94762.38
2017-05-12T22:40:46.265Z,94770.64
2017-05-12T22:43:12.565Z,94766.98
2017-05-12T22:45:38.748Z,94771.63
2017-05-12T22:48:05.875Z,94771.81
2017-05-12T22:50:32.065Z,94779.83
2017-05-12T22:52:58.246Z,94783.56
2017-05-12T22:55:24.450Z,94784.89
2017-05-12T22:57:50.617Z,94785.46
2017-05-12T23:00:16.957Z,94796.84
2017-05-12T23:02:43.150Z,94798.39
2017-05-12T23:05:09.290Z,94798.72
2017-05-12T23:07:35.442Z,94796.98
2017-05-12T23:10:01.641Z,94801.75
2017-05-12T23:12:28.761Z,94802.45
2017-05-12T23:14:54.965Z,94805.39
2017-05-12T23:17:21.178Z,94811.86
2017-05-12T23:19:47.355Z,94811.65
2017-05-12T23:22:13.655Z,94813.17
2017-05-12T23:24:39.901Z,94811.13
2017-05-12T23:27:06.070Z,94807.68
2017-05-12T23:29:34.770Z,94810.13
2017-05-12T23:32:02.025Z,94805.98
2017-05-12T23:34:28.983Z,94809.87
2017-05-12T23:36:56.137Z,94807.03
2017-05-12T23:39:23.248Z,94809.86
2017-05-12T23:41:49.409Z,94814.09
2017-05-12T23:44:16.349Z,94809.80
2017-05-12T23:46:42.519Z,94804.00
2017-05-12T23:49:08.686Z,94804.63
2017-05-12T23:51:34.900Z,94799.97
2017-05-12T23:54:01.110Z,94813.52
2017-05-12T23:56:28.166Z,94810.45
2017-05-12T23:58:55.074Z,94810.08
